createdAt,value
2022-08-24T08:20:29.111Z,2.03
2022-08-24T08:26:20.562Z,2.55
2022-08-24T08:28:58.940Z,2.50
2022-08-24T08:31:29.641Z,1.98
2022-08-24T16:48:31.828Z,1.77
2022-08-24T16:51:02.904Z,1.83
2022-08-24T16:53:31.035Z,2.00
2022-08-24T16:55:58.978Z,2.17
2022-08-24T16:58:32.299Z,1.67
2022-08-24T17:01:00.973Z,1.65
2022-08-24T17:03:29.547Z,1.80
2022-08-24T17:05:58.160Z,1.65
2022-08-24T17:08:27.764Z,2.55
2022-08-24T17:10:56.365Z,1.65
2022-08-24T17:13:48.535Z,2.00
2022-08-24T17:16:13.782Z,1.88
2022-08-24T17:18:42.271Z,1.65
2022-08-24T17:21:11.887Z,1.60
2022-08-24T17:23:41.490Z,2.00
2022-08-24T17:26:19.209Z,2.00
2022-08-24T17:28:53.241Z,1.80
2022-08-24T17:33:50.973Z,1.98
2022-08-24T17:36:23.701Z,1.42
2022-08-24T17:38:55.984Z,2.08
2022-08-24T17:41:27.810Z,1.80
2022-08-24T17:43:57.449Z,2.30
2022-08-24T17:46:26.069Z,1.50
2022-08-24T17:48:55.660Z,2.00
2022-08-24T17:51:23.285Z,1.67
2022-08-24T17:53:53.680Z,1.60
2022-08-24T17:56:23.179Z,2.05
2022-08-24T17:59:12.148Z,1.95
2022-08-24T18:01:43.731Z,1.75
2022-08-24T18:04:26.297Z,2.03
2022-08-24T18:07:05.046Z,1.70
2022-08-24T18:10:01.690Z,1.95
2022-08-24T18:12:35.912Z,1.58
2022-08-24T18:15:14.212Z,2.03
2022-08-24T18:17:58.315Z,1.80
2022-08-24T18:20:57.456Z,1.45
2022-08-24T18:23:52.481Z,2.00
2022-08-24T18:26:29.856Z,2.08
2022-08-24T18:29:08.641Z,1.70
2022-08-24T18:31:43.106Z,2.03
2022-08-24T18:34:26.302Z,2.20
2022-08-24T18:37:25.838Z,1.98
2022-08-24T18:40:01.203Z,2.40
2022-08-24T18:42:46.727Z,2.47
2022-08-24T18:45:29.344Z,2.17
2022-08-24T18:48:19.282Z,1.83
2022-08-24T18:51:11.672Z,2.25
2022-08-24T18:55:04.990Z,2.40
2022-08-24T18:57:59.418Z,2.63
2022-08-24T19:00:38.196Z,2.00
2022-08-24T19:03:20.707Z,2.00
2022-08-24T19:06:03.143Z,2.45
2022-08-24T19:11:32.893Z,2.00
2022-08-24T19:14:14.779Z,2.83
2022-08-24T19:16:47.174Z,2.60
2022-08-24T19:19:33.401Z,2.55
2022-08-24T19:22:16.296Z,3.00
2022-08-24T19:27:37.789Z,2.40
2022-08-24T19:30:24.122Z,2.33
2022-08-24T19:33:02.234Z,2.75
2022-08-24T19:35:54.254Z,2.38
2022-08-24T19:38:33.467Z,2.63
2022-08-24T19:41:18.150Z,2.70
2022-08-24T19:44:23.415Z,3.30
2022-08-24T19:47:03.602Z,3.05
2022-08-24T19:49:40.076Z,3.95
2022-08-24T19:52:18.463Z,3.15
2022-08-24T19:55:19.574Z,3.00
2022-08-24T19:58:03.239Z,3.00
2022-08-24T20:00:59.320Z,3.80
2022-08-24T20:03:30.559Z,3.53
2022-08-24T20:06:01.110Z,3.55
2022-08-24T20:08:34.759Z,3.53
2022-08-24T20:11:13.451Z,3.22
2022-08-24T20:13:54.511Z,3.17
2022-08-24T20:16:32.109Z,3.20
2022-08-24T20:19:01.285Z,3.10
2022-08-24T20:21:31.239Z,3.13
2022-08-24T20:24:04.770Z,3.65
2022-08-24T20:26:46.230Z,3.55
2022-08-24T20:29:18.309Z,3.25
2022-08-24T20:31:54.575Z,3.40
2022-08-24T20:34:31.190Z,3.10
2022-08-24T20:37:02.098Z,3.50
2022-08-24T20:39:30.307Z,3.38
2022-08-24T20:41:58.771Z,3.40
2022-08-24T20:44:31.518Z,3.50
2022-08-24T20:49:34.708Z,2.85
2022-08-24T20:54:45.910Z,3.08
2022-08-24T20:57:33.282Z,3.38
2022-08-24T21:00:02.260Z,3.50
2022-08-24T21:02:32.892Z,3.67
2022-08-24T21:05:02.473Z,3.78
2022-08-24T21:07:45.251Z,3.47
2022-08-24T21:10:24.996Z,3.13
2022-08-24T21:12:58.546Z,3.03
2022-08-24T21:15:29.017Z,4.20
2022-08-24T21:18:03.703Z,3.30
2022-08-24T21:20:37.263Z,4.00
2022-08-24T21:23:11.862Z,3.95
2022-08-24T21:25:43.531Z,3.92
2022-08-24T21:28:12.077Z,5.00
2022-08-24T21:30:41.540Z,4.22
2022-08-24T21:33:28.418Z,3.70
2022-08-24T21:35:57.019Z,3.88
2022-08-24T21:38:27.624Z,4.20
2022-08-24T21:40:56.224Z,3.90
2022-08-24T21:43:23.826Z,4.40
2022-08-24T21:45:51.447Z,4.50
2022-08-24T21:48:20.032Z,4.00
2022-08-24T21:50:49.666Z,4.90
2022-08-24T21:53:17.838Z,5.15
2022-08-24T21:55:47.879Z,3.53
2022-08-24T21:58:16.444Z,4.40
2022-08-24T22:00:46.839Z,4.75
2022-08-24T22:03:14.666Z,4.13
2022-08-24T22:05:44.273Z,4.03
2022-08-24T22:08:12.854Z,3.70
2022-08-24T22:10:42.464Z,3.78
2022-08-24T22:13:14.108Z,4.15
2022-08-24T22:15:44.627Z,4.97
2022-08-24T22:18:14.283Z,4.22
2022-08-24T22:20:41.881Z,4.90
2022-08-24T22:23:12.483Z,4.50
2022-08-24T22:25:42.081Z,4.45
2022-08-24T22:28:10.690Z,4.28
2022-08-24T22:30:40.292Z,4.55
2022-08-24T22:33:12.424Z,4.85
2022-08-24T22:35:44.821Z,4.50
2022-08-24T22:38:14.466Z,4.45
2022-08-24T22:40:44.754Z,5.15
2022-08-24T22:43:14.378Z,4.97
2022-08-24T22:45:43.004Z,4.47
2022-08-24T22:48:11.561Z,5.00
2022-08-24T22:50:43.018Z,4.40
2022-08-24T22:53:11.784Z,4.85
2022-08-24T22:55:40.402Z,4.93
2022-08-24T22:58:10.902Z,4.45
2022-08-24T23:00:41.657Z,5.35
2022-08-24T23:03:11.907Z,4.88
2022-08-24T23:05:41.661Z,5.50
2022-08-24T23:08:10.257Z,5.07
2022-08-24T23:10:37.995Z,5.00
2022-08-24T23:13:08.932Z,4.35
2022-08-24T23:15:38.243Z,5.85
2022-08-24T23:18:26.886Z,4.93
2022-08-24T23:20:55.474Z,6.35
2022-08-24T23:23:24.109Z,5.70
2022-08-24T23:25:53.717Z,6.35
2022-08-24T23:28:22.328Z,5.15
2022-08-24T23:30:51.968Z,5.85
2022-08-24T23:33:26.965Z,5.30
2022-08-24T23:36:00.961Z,5.38
2022-08-24T23:38:29.773Z,5.03
2022-08-24T23:41:01.399Z,4.13
2022-08-24T23:43:31.962Z,5.40
2022-08-24T23:46:03.117Z,5.28
2022-08-24T23:48:33.218Z,4.75
2022-08-24T23:51:02.827Z,6.28
2022-08-24T23:53:31.452Z,4.75
2022-08-24T23:56:12.082Z,6.47
2022-08-24T23:58:46.880Z,5.70
